createdAt,value
2023-06-16T00:00:46.449Z,0
2023-06-16T00:01:46.487Z,0
2023-06-16T00:02:46.481Z,0
2023-06-16T00:03:46.472Z,0
2023-06-16T00:04:46.452Z,0
2023-06-16T00:05:46.452Z,0
2023-06-16T00:06:46.450Z,0
2023-06-16T00:07:46.475Z,0
2023-06-16T00:08:46.459Z,0
2023-06-16T00:09:46.449Z,0
2023-06-16T00:10:46.454Z,0
2023-06-16T00:11:46.454Z,0
2023-06-16T00:12:46.482Z,0
2023-06-16T00:13:46.465Z,0
2023-06-16T00:14:46.456Z,0
2023-06-16T00:15:46.458Z,0
2023-06-16T00:16:46.456Z,0
2023-06-16T00:17:46.474Z,0
2023-06-16T00:18:46.461Z,0
2023-06-16T00:19:46.453Z,0
2023-06-16T00:20:46.462Z,0
2023-06-16T00:21:46.462Z,0
2023-06-16T00:22:46.458Z,0
2023-06-16T00:23:46.507Z,0
2023-06-16T00:24:46.456Z,0
2023-06-16T00:25:46.450Z,0
2023-06-16T00:26:46.461Z,0
2023-06-16T00:27:46.455Z,0
2023-06-16T00:28:46.453Z,0
2023-06-16T00:29:46.454Z,0
2023-06-16T00:30:46.461Z,0
2023-06-16T00:31:46.454Z,0
2023-06-16T00:32:46.489Z,0
2023-06-16T00:33:46.460Z,0
2023-06-16T00:34:46.456Z,0
2023-06-16T00:35:46.458Z,0
2023-06-16T00:36:46.455Z,0
2023-06-16T00:37:46.453Z,0
2023-06-16T00:38:46.457Z,0
2023-06-16T00:39:46.479Z,0
2023-06-16T00:40:46.452Z,0
2023-06-16T00:41:46.471Z,0
2023-06-16T00:42:46.458Z,0
2023-06-16T00:43:46.479Z,0
2023-06-16T00:44:46.473Z,0
2023-06-16T00:45:46.461Z,0
2023-06-16T00:46:46.535Z,0
2023-06-16T00:47:46.487Z,0
2023-06-16T00:48:46.457Z,0
2023-06-16T00:49:46.457Z,0
2023-06-16T00:50:46.456Z,0
2023-06-16T00:51:46.456Z,0
2023-06-16T00:52:46.455Z,0
2023-06-16T00:53:46.458Z,0
2023-06-16T00:54:46.459Z,0
2023-06-16T00:55:46.486Z,0
2023-06-16T00:56:46.454Z,0
2023-06-16T00:57:46.455Z,0
2023-06-16T00:58:46.453Z,0
2023-06-16T00:59:46.465Z,0
2023-06-16T01:00:46.459Z,0
2023-06-16T01:01:46.517Z,0
2023-06-16T01:02:46.567Z,0
2023-06-16T01:03:46.462Z,0
2023-06-16T01:04:46.459Z,0
2023-06-16T01:05:46.465Z,0
2023-06-16T01:06:46.461Z,0
2023-06-16T01:07:46.482Z,0
2023-06-16T01:08:46.469Z,0
2023-06-16T01:09:46.464Z,0
2023-06-16T01:10:46.472Z,0
2023-06-16T01:11:46.498Z,0
2023-06-16T01:12:46.479Z,0
2023-06-16T01:13:46.653Z,0
2023-06-16T01:14:46.462Z,0
2023-06-16T01:15:46.469Z,0
2023-06-16T01:16:46.494Z,0
2023-06-16T01:17:46.490Z,0
2023-06-16T01:18:46.482Z,0
2023-06-16T01:19:46.466Z,0
2023-06-16T01:20:46.472Z,0
2023-06-16T01:21:46.476Z,0
2023-06-16T01:22:46.471Z,0
2023-06-16T01:23:46.480Z,0
2023-06-16T01:24:46.465Z,0
2023-06-16T01:25:46.465Z,0
2023-06-16T01:26:46.477Z,0
2023-06-16T01:27:46.510Z,0
2023-06-16T01:28:46.496Z,0
2023-06-16T01:29:46.482Z,0
2023-06-16T01:30:46.472Z,0
2023-06-16T01:31:46.474Z,0
2023-06-16T01:32:46.555Z,0
2023-06-16T01:33:46.477Z,0
2023-06-16T01:34:46.476Z,0
2023-06-16T01:35:46.476Z,0
2023-06-16T01:36:46.479Z,0
2023-06-16T01:37:46.477Z,0
2023-06-16T01:38:46.482Z,0
2023-06-16T01:39:46.481Z,0
2023-06-16T01:40:46.480Z,0
2023-06-16T01:41:46.480Z,0
2023-06-16T01:42:46.476Z,0
2023-06-16T01:43:46.508Z,0
2023-06-16T01:44:46.483Z,0
2023-06-16T01:45:46.522Z,0
2023-06-16T01:46:46.582Z,0
2023-06-16T01:47:46.541Z,0
2023-06-16T01:48:46.482Z,0
2023-06-16T01:49:46.484Z,0
2023-06-16T01:50:46.485Z,0
2023-06-16T01:51:46.491Z,0
2023-06-16T01:52:46.487Z,0
2023-06-16T01:53:46.491Z,0
2023-06-16T01:54:46.482Z,0
2023-06-16T01:55:46.485Z,0
2023-06-16T01:56:46.486Z,0
2023-06-16T01:57:46.489Z,0
2023-06-16T01:58:46.484Z,0
2023-06-16T01:59:46.513Z,0
2023-06-16T02:00:46.485Z,0
2023-06-16T02:01:46.487Z,0
2023-06-16T02:02:46.502Z,0
2023-06-16T02:03:46.567Z,0
2023-06-16T02:04:46.489Z,0
2023-06-16T02:05:46.486Z,0
2023-06-16T02:06:46.517Z,0
2023-06-16T02:07:46.487Z,0
2023-06-16T02:08:46.490Z,0
2023-06-16T02:09:46.490Z,0
2023-06-16T02:10:46.494Z,0
2023-06-16T02:11:46.489Z,0
2023-06-16T02:12:46.488Z,0
2023-06-16T02:13:46.492Z,0
2023-06-16T02:14:46.493Z,0
2023-06-16T02:15:46.554Z,0
2023-06-16T02:16:46.496Z,0
2023-06-16T02:17:46.518Z,0
2023-06-16T02:18:46.503Z,0
2023-06-16T02:19:46.493Z,0
2023-06-16T02:20:46.493Z,0
2023-06-16T02:21:46.491Z,0
2023-06-16T02:22:46.493Z,0
2023-06-16T02:23:46.513Z,0
2023-06-16T02:24:46.490Z,0
2023-06-16T02:25:46.496Z,0
2023-06-16T02:26:46.495Z,0
2023-06-16T02:27:46.505Z,0
2023-06-16T02:28:46.496Z,0
2023-06-16T02:29:46.506Z,0
2023-06-16T02:30:46.500Z,0
2023-06-16T02:31:46.541Z,0
2023-06-16T02:32:57.208Z,0
2023-06-16T02:33:46.501Z,0
2023-06-16T02:34:46.496Z,0
2023-06-16T02:35:46.530Z,0
2023-06-16T02:36:46.502Z,0
2023-06-16T02:37:46.494Z,0
2023-06-16T02:38:46.562Z,0
2023-06-16T02:39:46.505Z,0
2023-06-16T02:40:46.495Z,0
2023-06-16T02:41:46.496Z,0
2023-06-16T02:42:46.498Z,0
2023-06-16T02:43:46.499Z,0
2023-06-16T02:44:46.568Z,0
2023-06-16T02:45:46.507Z,0
2023-06-16T02:46:46.552Z,0
2023-06-16T02:47:46.570Z,2
2023-06-16T02:48:46.496Z,2
2023-06-16T02:49:46.497Z,2
2023-06-16T02:50:46.500Z,2
2023-06-16T02:51:46.495Z,2
2023-06-16T02:52:46.495Z,2
2023-06-16T02:53:46.509Z,2
2023-06-16T02:54:46.504Z,5
2023-06-16T02:55:46.504Z,5
2023-06-16T02:56:46.499Z,5
2023-06-16T02:57:46.511Z,5
2023-06-16T02:58:46.524Z,5
2023-06-16T02:59:46.506Z,9
2023-06-16T03:00:46.523Z,9
2023-06-16T03:01:46.501Z,9
2023-06-16T03:02:46.531Z,9
2023-06-16T03:03:46.529Z,9
2023-06-16T03:04:46.503Z,16
2023-06-16T03:05:46.508Z,16
2023-06-16T03:06:46.514Z,16
2023-06-16T03:07:46.501Z,16
2023-06-16T03:08:46.504Z,16
2023-06-16T03:09:46.499Z,26
2023-06-16T03:10:46.521Z,26
2023-06-16T03:11:46.522Z,26
2023-06-16T03:12:46.503Z,26
2023-06-16T03:13:46.516Z,26
2023-06-16T03:14:46.504Z,40
2023-06-16T03:15:46.500Z,40
2023-06-16T03:16:46.526Z,40
2023-06-16T03:17:46.524Z,40
2023-06-16T03:18:46.509Z,40
2023-06-16T03:19:46.530Z,57
2023-06-16T03:20:46.505Z,57
2023-06-16T03:21:46.509Z,57
2023-06-16T03:22:46.506Z,57
2023-06-16T03:23:46.538Z,57
2023-06-16T03:24:46.506Z,75
2023-06-16T03:25:46.510Z,75
2023-06-16T03:26:46.507Z,75
2023-06-16T03:27:46.505Z,75
2023-06-16T03:28:46.508Z,75
2023-06-16T03:29:46.504Z,94
2023-06-16T03:30:46.510Z,94
2023-06-16T03:31:46.510Z,94
2023-06-16T03:32:46.536Z,94
2023-06-16T03:33:46.521Z,94
2023-06-16T03:34:46.510Z,113
2023-06-16T03:35:46.544Z,113
2023-06-16T03:36:46.519Z,113
2023-06-16T03:37:46.511Z,113
2023-06-16T03:38:46.509Z,113
2023-06-16T03:39:46.524Z,123
2023-06-16T03:40:46.509Z,123
2023-06-16T03:41:46.515Z,123
2023-06-16T03:42:46.518Z,123
2023-06-16T03:43:46.523Z,123
2023-06-16T03:44:46.512Z,135
2023-06-16T03:45:46.525Z,135
2023-06-16T03:46:46.513Z,135
2023-06-16T03:47:46.528Z,135
2023-06-16T03:48:46.512Z,135
2023-06-16T03:49:46.516Z,147
2023-06-16T03:50:46.513Z,147
2023-06-16T03:51:46.542Z,147
2023-06-16T03:52:46.516Z,147
2023-06-16T03:53:46.518Z,147
2023-06-16T03:54:46.526Z,166
2023-06-16T03:55:46.525Z,166
2023-06-16T03:56:46.517Z,166
2023-06-16T03:57:46.516Z,166
2023-06-16T03:58:46.522Z,166
2023-06-16T03:59:46.519Z,184
2023-06-16T04:00:46.520Z,184
2023-06-16T04:01:46.604Z,184
2023-06-16T04:02:46.525Z,184
2023-06-16T04:03:46.541Z,184
2023-06-16T04:04:46.550Z,210
2023-06-16T04:05:46.523Z,210
2023-06-16T04:06:46.519Z,210
2023-06-16T04:07:46.553Z,210
2023-06-16T04:08:48.157Z,210
2023-06-16T04:09:46.526Z,261
2023-06-16T04:10:46.528Z,261
2023-06-16T04:11:46.532Z,261
2023-06-16T04:12:46.526Z,261
2023-06-16T04:13:46.526Z,261
2023-06-16T04:14:46.527Z,339
2023-06-16T04:15:46.526Z,339
2023-06-16T04:16:46.524Z,339
2023-06-16T04:17:46.555Z,339
2023-06-16T04:18:46.530Z,339
2023-06-16T04:19:46.531Z,427
2023-06-16T04:20:46.532Z,427
2023-06-16T04:21:46.532Z,427
2023-06-16T04:22:46.534Z,427
2023-06-16T04:23:46.581Z,427
2023-06-16T04:24:46.531Z,487
2023-06-16T04:25:46.529Z,487
2023-06-16T04:26:46.529Z,487
2023-06-16T04:27:46.539Z,487
2023-06-16T04:28:46.539Z,487
2023-06-16T04:29:46.549Z,551
2023-06-16T04:30:46.534Z,551
2023-06-16T04:31:46.533Z,551
2023-06-16T04:32:46.604Z,551
2023-06-16T04:33:46.537Z,551
2023-06-16T04:34:46.540Z,566
2023-06-16T04:35:46.541Z,566
2023-06-16T04:36:46.543Z,566
2023-06-16T04:37:46.545Z,566
2023-06-16T04:38:46.538Z,527
2023-06-16T04:39:46.565Z,526
2023-06-16T04:40:46.540Z,536
2023-06-16T04:41:46.551Z,499
2023-06-16T04:42:46.543Z,497
2023-06-16T04:43:46.544Z,497
2023-06-16T04:44:46.538Z,497
2023-06-16T04:45:46.578Z,497
2023-06-16T04:46:46.543Z,497
2023-06-16T04:47:46.562Z,510
2023-06-16T04:48:46.549Z,510
2023-06-16T04:49:46.549Z,510
2023-06-16T04:50:46.540Z,510
2023-06-16T04:51:46.544Z,510
2023-06-16T04:52:46.546Z,620
2023-06-16T04:53:46.544Z,620
2023-06-16T04:54:46.548Z,620
2023-06-16T04:55:46.577Z,620
2023-06-16T04:56:46.545Z,620
2023-06-16T04:57:46.547Z,726
2023-06-16T04:58:46.546Z,726
2023-06-16T04:59:46.549Z,726
2023-06-16T05:00:46.547Z,726
2023-06-16T05:01:46.552Z,726
2023-06-16T05:02:46.581Z,804
2023-06-16T05:03:46.654Z,804
2023-06-16T05:04:46.548Z,804
2023-06-16T05:05:46.550Z,804
2023-06-16T05:06:46.546Z,804
2023-06-16T05:07:46.552Z,809
2023-06-16T05:08:46.552Z,809
2023-06-16T05:09:46.554Z,809
2023-06-16T05:10:46.552Z,809
2023-06-16T05:11:46.575Z,809
2023-06-16T05:12:46.551Z,742
2023-06-16T05:13:46.552Z,742
2023-06-16T05:14:46.555Z,742
2023-06-16T05:15:46.549Z,742
2023-06-16T05:16:46.586Z,742
2023-06-16T05:17:46.653Z,740
2023-06-16T05:18:46.582Z,740
2023-06-16T05:19:46.555Z,740
2023-06-16T05:20:46.551Z,740
2023-06-16T05:21:46.551Z,740
2023-06-16T05:22:46.557Z,781
2023-06-16T05:23:46.565Z,781
2023-06-16T05:24:46.574Z,781
2023-06-16T05:25:46.554Z,781
2023-06-16T05:26:46.553Z,781
2023-06-16T05:27:46.579Z,796
2023-06-16T05:28:46.556Z,796
2023-06-16T05:29:46.551Z,796
2023-06-16T05:30:46.584Z,796
2023-06-16T05:31:46.559Z,796
2023-06-16T05:32:46.567Z,1220
2023-06-16T05:33:46.557Z,1220
2023-06-16T05:34:46.560Z,1220
2023-06-16T05:35:46.554Z,1220
2023-06-16T05:36:46.557Z,1220
2023-06-16T05:37:46.554Z,1376
2023-06-16T05:38:46.552Z,1376
2023-06-16T05:39:46.554Z,1376
2023-06-16T05:40:46.554Z,1376
2023-06-16T05:41:46.557Z,1376
2023-06-16T05:42:46.549Z,1688
2023-06-16T05:43:46.576Z,1688
2023-06-16T05:44:46.549Z,1688
2023-06-16T05:45:46.552Z,1688
2023-06-16T05:46:46.552Z,1688
2023-06-16T05:47:46.601Z,1590
2023-06-16T05:48:46.559Z,1590
2023-06-16T05:49:46.557Z,1590
2023-06-16T05:50:46.564Z,1590
2023-06-16T05:51:46.555Z,1590
2023-06-16T05:52:46.555Z,1547
2023-06-16T05:53:46.552Z,1547
2023-06-16T05:54:46.555Z,1547
2023-06-16T05:55:46.558Z,1547
2023-06-16T05:56:46.555Z,1547
2023-06-16T05:57:46.554Z,1275
2023-06-16T05:58:46.554Z,1275
2023-06-16T05:59:46.578Z,1275
2023-06-16T06:00:46.552Z,1275
2023-06-16T06:01:46.576Z,1275
2023-06-16T06:02:46.579Z,776
2023-06-16T06:03:46.819Z,776
2023-06-16T06:04:46.575Z,776
2023-06-16T06:05:46.553Z,776
2023-06-16T06:06:46.557Z,776
2023-06-16T06:07:46.557Z,562
2023-06-16T06:08:46.566Z,562
2023-06-16T06:09:46.562Z,562
2023-06-16T06:10:46.557Z,562
2023-06-16T06:11:46.556Z,562
2023-06-16T06:12:46.557Z,520
2023-06-16T06:13:46.563Z,520
2023-06-16T06:14:46.562Z,520
2023-06-16T06:15:46.699Z,520
2023-06-16T06:16:46.567Z,520
2023-06-16T06:17:46.627Z,545
2023-06-16T06:18:46.555Z,545
2023-06-16T06:19:46.560Z,545
2023-06-16T06:20:46.563Z,545
2023-06-16T06:21:46.552Z,545
2023-06-16T06:22:48.863Z,499
2023-06-16T06:23:46.556Z,499
2023-06-16T06:24:46.561Z,499
2023-06-16T06:25:46.577Z,499
2023-06-16T06:26:46.584Z,499
2023-06-16T06:27:46.558Z,491
2023-06-16T06:28:46.565Z,491
2023-06-16T06:29:46.576Z,491
2023-06-16T06:30:46.582Z,491
2023-06-16T06:31:46.587Z,491
2023-06-16T06:32:46.582Z,462
2023-06-16T06:33:46.560Z,462
2023-06-16T06:34:46.562Z,462
2023-06-16T06:35:46.560Z,462
2023-06-16T06:36:46.563Z,462
2023-06-16T06:37:46.565Z,365
2023-06-16T06:38:46.562Z,365
2023-06-16T06:39:46.562Z,365
2023-06-16T06:40:46.565Z,365
2023-06-16T06:41:46.562Z,365
2023-06-16T06:42:46.568Z,333
2023-06-16T06:43:46.567Z,333
2023-06-16T06:44:46.563Z,333
2023-06-16T06:45:46.569Z,364
2023-06-16T06:46:46.581Z,328
2023-06-16T06:47:46.622Z,328
2023-06-16T06:48:46.560Z,328
2023-06-16T06:49:46.591Z,328
2023-06-16T06:50:46.566Z,328
2023-06-16T06:51:46.567Z,276
2023-06-16T06:52:46.567Z,276
2023-06-16T06:53:46.565Z,276
2023-06-16T06:54:46.568Z,276
2023-06-16T06:55:46.570Z,276
2023-06-16T06:56:46.567Z,298
2023-06-16T06:57:46.569Z,298
2023-06-16T06:58:46.565Z,298
2023-06-16T06:59:46.576Z,298
2023-06-16T07:00:46.571Z,298
2023-06-16T07:01:46.577Z,392
2023-06-16T07:02:46.716Z,392
2023-06-16T07:03:46.672Z,392
2023-06-16T07:04:46.568Z,392
2023-06-16T07:05:46.569Z,392
2023-06-16T07:06:46.582Z,422
2023-06-16T07:07:46.591Z,422
2023-06-16T07:08:46.580Z,422
2023-06-16T07:09:46.571Z,422
2023-06-16T07:10:46.575Z,422
2023-06-16T07:11:46.593Z,531
2023-06-16T07:12:46.574Z,531
2023-06-16T07:13:46.578Z,531
2023-06-16T07:14:46.575Z,531
2023-06-16T07:15:46.588Z,531
2023-06-16T07:16:46.578Z,620
2023-06-16T07:17:46.608Z,620
2023-06-16T07:18:46.578Z,620
2023-06-16T07:19:46.635Z,620
2023-06-16T07:20:46.579Z,620
2023-06-16T07:21:46.581Z,721
2023-06-16T07:22:46.583Z,721
2023-06-16T07:23:46.650Z,721
2023-06-16T07:24:46.584Z,721
2023-06-16T07:25:46.584Z,721
2023-06-16T07:26:46.602Z,878
2023-06-16T07:27:46.584Z,878
2023-06-16T07:28:46.625Z,878
2023-06-16T07:29:46.591Z,878
2023-06-16T07:30:46.594Z,878
2023-06-16T07:31:46.590Z,1033
2023-06-16T07:32:46.598Z,1033
2023-06-16T07:33:46.586Z,1033
2023-06-16T07:34:46.582Z,1033
2023-06-16T07:35:46.612Z,1033
2023-06-16T07:36:46.588Z,1251
2023-06-16T07:37:46.597Z,1251
2023-06-16T07:38:46.587Z,1251
2023-06-16T07:39:46.592Z,1251
2023-06-16T07:40:46.591Z,1251
2023-06-16T07:41:46.584Z,1433
2023-06-16T07:42:46.757Z,1433
2023-06-16T07:43:46.599Z,1433
2023-06-16T07:44:46.622Z,1433
2023-06-16T07:45:46.618Z,1864
2023-06-16T07:46:46.619Z,1864
2023-06-16T07:47:46.604Z,1864
2023-06-16T07:48:46.647Z,1864
2023-06-16T07:49:46.601Z,1864
2023-06-16T07:50:46.601Z,2713
2023-06-16T07:51:46.635Z,2713
2023-06-16T07:52:46.592Z,2713
2023-06-16T07:53:46.600Z,2713
2023-06-16T07:54:46.596Z,2713
2023-06-16T07:55:46.590Z,5695
2023-06-16T07:56:46.593Z,5695
2023-06-16T07:57:46.595Z,5695
2023-06-16T07:58:46.596Z,5695
2023-06-16T07:59:46.609Z,5695
2023-06-16T08:00:46.594Z,5675
2023-06-16T08:01:46.688Z,5675
2023-06-16T08:02:46.665Z,5675
2023-06-16T08:03:46.703Z,5675
2023-06-16T08:04:46.653Z,5675
2023-06-16T08:05:46.596Z,5522
2023-06-16T08:06:46.598Z,5033
2023-06-16T08:07:46.823Z,5033
2023-06-16T08:08:46.600Z,5033
2023-06-16T08:09:46.599Z,5033
2023-06-16T08:10:46.598Z,5033
2023-06-16T08:11:46.596Z,6015
2023-06-16T08:12:46.598Z,6015
2023-06-16T08:13:46.604Z,6015
2023-06-16T08:14:46.601Z,6015
2023-06-16T08:15:46.634Z,6015
2023-06-16T08:16:46.599Z,5946
2023-06-16T08:17:46.616Z,5937
2023-06-16T08:18:46.595Z,5937
2023-06-16T08:19:46.602Z,5937
2023-06-16T08:20:46.603Z,5944
2023-06-16T08:21:46.610Z,5944
2023-06-16T08:22:46.599Z,5944
2023-06-16T08:23:46.647Z,5944
2023-06-16T08:24:46.604Z,5944
2023-06-16T08:25:46.597Z,6048
2023-06-16T08:26:46.603Z,5991
2023-06-16T08:27:46.649Z,5922
2023-06-16T08:28:46.604Z,5898
2023-06-16T08:29:46.606Z,5898
2023-06-16T08:30:46.611Z,5898
2023-06-16T08:31:46.609Z,5898
2023-06-16T08:32:46.712Z,5898
2023-06-16T08:33:46.618Z,5821
2023-06-16T08:34:46.609Z,5821
2023-06-16T08:35:46.607Z,5821
2023-06-16T08:36:46.635Z,5844
2023-06-16T08:37:46.606Z,5844
2023-06-16T08:38:46.601Z,5844
2023-06-16T08:39:46.628Z,5844
2023-06-16T08:40:46.607Z,5844
2023-06-16T08:41:46.609Z,5868
2023-06-16T08:42:46.609Z,5868
2023-06-16T08:43:46.611Z,5868
2023-06-16T08:44:46.614Z,5868
2023-06-16T08:45:46.620Z,5868
2023-06-16T08:46:46.621Z,5883
2023-06-16T08:47:46.629Z,5883
2023-06-16T08:48:46.609Z,5883
2023-06-16T08:49:46.610Z,5883
2023-06-16T08:50:46.613Z,5883
2023-06-16T08:51:46.612Z,5936
2023-06-16T08:52:46.611Z,5936
2023-06-16T08:53:46.634Z,5906
2023-06-16T08:54:46.616Z,5918
2023-06-16T08:55:46.632Z,5901
2023-06-16T08:56:46.614Z,5901
2023-06-16T08:57:46.606Z,5901
2023-06-16T08:58:46.608Z,5901
2023-06-16T08:59:46.606Z,5901
2023-06-16T09:00:46.609Z,6112
2023-06-16T09:01:46.604Z,6112
2023-06-16T09:02:46.649Z,6112
2023-06-16T09:03:46.649Z,6112
2023-06-16T09:04:46.607Z,6112
2023-06-16T09:05:46.627Z,2856
2023-06-16T09:06:46.613Z,2856
2023-06-16T09:07:46.781Z,2856
2023-06-16T09:08:46.614Z,1771
2023-06-16T09:09:46.616Z,1771
2023-06-16T09:10:46.615Z,1771
2023-06-16T09:11:46.649Z,1771
2023-06-16T09:12:46.617Z,1771
2023-06-16T09:13:46.620Z,1495
2023-06-16T09:14:46.620Z,1464
2023-06-16T09:15:46.616Z,1468
2023-06-16T09:16:46.635Z,1524
2023-06-16T09:17:46.640Z,1524
2023-06-16T09:18:46.621Z,1524
2023-06-16T09:19:46.615Z,1524
2023-06-16T09:20:46.616Z,1524
2023-06-16T09:21:48.236Z,4967
2023-06-16T09:22:46.617Z,4967
2023-06-16T09:23:46.645Z,5374
2023-06-16T09:24:46.617Z,6214
2023-06-16T09:25:46.619Z,6214
2023-06-16T09:26:46.632Z,6294
2023-06-16T09:27:46.648Z,6294
2023-06-16T09:28:46.621Z,6294
2023-06-16T09:29:46.617Z,6294
2023-06-16T09:30:47.373Z,6318
2023-06-16T09:31:46.619Z,3097
2023-06-16T09:32:46.672Z,3097
2023-06-16T09:33:46.626Z,3097
2023-06-16T09:34:46.632Z,3097
2023-06-16T09:35:46.616Z,3097
2023-06-16T09:36:46.623Z,2575
2023-06-16T09:37:46.621Z,2575
2023-06-16T09:38:46.626Z,2575
2023-06-16T09:39:46.623Z,2575
2023-06-16T09:40:46.618Z,2575
2023-06-16T09:41:46.633Z,2595
2023-06-16T09:42:46.624Z,2595
2023-06-16T09:43:46.676Z,2595
2023-06-16T09:44:46.616Z,2595
2023-06-16T09:45:46.622Z,2666
2023-06-16T09:46:46.627Z,2563
2023-06-16T09:47:46.648Z,2563
2023-06-16T09:48:46.621Z,2563
2023-06-16T09:49:46.625Z,2563
2023-06-16T09:50:46.621Z,2563
2023-06-16T09:51:46.621Z,4763
2023-06-16T09:52:46.644Z,4763
2023-06-16T09:53:46.621Z,4763
2023-06-16T09:54:46.621Z,2666
2023-06-16T09:55:46.618Z,2666
2023-06-16T09:56:46.630Z,2666
2023-06-16T09:57:46.624Z,2666
2023-06-16T09:58:46.628Z,2666
2023-06-16T09:59:46.661Z,1981
2023-06-16T10:00:46.630Z,1981
2023-06-16T10:01:46.640Z,1981
2023-06-16T10:02:46.737Z,1788
2023-06-16T10:03:46.629Z,1788
2023-06-16T10:04:46.630Z,1788
2023-06-16T10:05:46.623Z,1788
2023-06-16T10:06:46.623Z,1788
2023-06-16T10:07:46.623Z,1475
2023-06-16T10:08:46.626Z,1475
2023-06-16T10:09:59.037Z,1475
2023-06-16T10:10:46.626Z,1404
2023-06-16T10:11:46.632Z,1378
2023-06-16T10:12:46.665Z,1378
2023-06-16T10:13:46.626Z,1378
2023-06-16T10:14:46.635Z,1378
2023-06-16T10:15:46.665Z,1378
2023-06-16T10:16:46.660Z,1460
2023-06-16T10:17:46.720Z,1460
2023-06-16T10:18:46.726Z,1460
2023-06-16T10:19:46.631Z,1460
2023-06-16T10:20:46.627Z,1460
2023-06-16T10:21:46.631Z,1917
2023-06-16T10:22:46.631Z,1917
2023-06-16T10:23:46.678Z,1917
2023-06-16T10:24:46.631Z,1917
2023-06-16T10:25:46.634Z,1917
2023-06-16T10:26:46.630Z,5293
2023-06-16T10:27:46.644Z,5475
2023-06-16T10:28:46.633Z,5466
2023-06-16T10:29:46.638Z,5640
2023-06-16T10:30:46.642Z,5673
2023-06-16T10:31:46.680Z,5653
2023-06-16T10:32:46.692Z,5639
2023-06-16T10:33:46.639Z,5550
2023-06-16T10:34:46.636Z,5582
2023-06-16T10:35:46.636Z,5555
2023-06-16T10:36:46.638Z,5503
2023-06-16T10:37:46.636Z,5401
2023-06-16T10:38:46.641Z,5401
2023-06-16T10:39:46.651Z,5353
2023-06-16T10:40:46.646Z,5353
2023-06-16T10:41:46.645Z,5326
2023-06-16T10:42:46.646Z,5295
2023-06-16T10:43:46.648Z,5326
2023-06-16T10:44:46.646Z,5157
2023-06-16T10:45:46.645Z,3345
2023-06-16T10:46:46.720Z,3345
2023-06-16T10:47:46.713Z,3345
2023-06-16T10:48:46.649Z,3345
2023-06-16T10:49:46.651Z,3345
2023-06-16T10:50:46.649Z,4373
2023-06-16T10:51:46.672Z,2487
2023-06-16T10:52:46.653Z,2487
2023-06-16T10:53:46.650Z,5420
2023-06-16T10:54:46.657Z,5383
2023-06-16T10:55:46.652Z,5383
2023-06-16T10:56:47.077Z,5404
2023-06-16T10:57:46.650Z,5461
2023-06-16T10:58:48.740Z,5504
2023-06-16T10:59:46.665Z,5636
2023-06-16T11:00:46.651Z,5745
2023-06-16T11:01:46.687Z,4690
2023-06-16T11:02:46.675Z,5893
2023-06-16T11:03:46.923Z,5879
2023-06-16T11:04:46.661Z,2725
2023-06-16T11:05:46.655Z,2720
2023-06-16T11:06:55.364Z,2720
2023-06-16T11:07:46.660Z,2816
2023-06-16T11:08:46.657Z,2753
2023-06-16T11:09:46.659Z,2753
2023-06-16T11:10:46.657Z,3278
2023-06-16T11:11:46.660Z,3278
2023-06-16T11:12:46.660Z,2387
2023-06-16T11:13:46.659Z,2049
2023-06-16T11:14:46.659Z,1854
2023-06-16T11:15:46.696Z,1777
2023-06-16T11:16:46.660Z,1597
2023-06-16T11:17:46.676Z,1526
2023-06-16T11:18:46.662Z,1454
2023-06-16T11:19:46.686Z,1416
2023-06-16T11:20:46.673Z,1390
2023-06-16T11:21:46.667Z,1390
2023-06-16T11:22:46.665Z,1390
2023-06-16T11:23:46.712Z,1390
2023-06-16T11:24:46.664Z,1390
2023-06-16T11:25:46.664Z,1091
2023-06-16T11:26:46.664Z,1091
2023-06-16T11:27:46.664Z,962
2023-06-16T11:28:46.664Z,882
2023-06-16T11:29:46.661Z,858
2023-06-16T11:30:46.665Z,789
2023-06-16T11:31:48.889Z,740
2023-06-16T11:32:46.671Z,686
2023-06-16T11:33:46.674Z,638
2023-06-16T11:34:46.667Z,603
2023-06-16T11:35:46.700Z,593
2023-06-16T11:36:47.800Z,599
2023-06-16T11:37:46.670Z,610
2023-06-16T11:38:46.666Z,623
2023-06-16T11:39:46.671Z,631
2023-06-16T11:40:47.773Z,636
2023-06-16T11:41:57.546Z,632
2023-06-16T11:42:46.672Z,626
2023-06-16T11:43:46.676Z,628
2023-06-16T11:44:46.685Z,622
2023-06-16T11:45:46.680Z,603
2023-06-16T11:46:46.722Z,586
2023-06-16T11:47:46.723Z,582
2023-06-16T11:48:46.687Z,568
2023-06-16T11:49:46.679Z,544
2023-06-16T11:50:46.682Z,520
2023-06-16T11:51:46.709Z,499
2023-06-16T11:52:46.678Z,480
2023-06-16T11:53:46.684Z,462
2023-06-16T11:54:46.684Z,446
2023-06-16T11:55:46.685Z,435
2023-06-16T11:56:46.683Z,421
2023-06-16T11:57:46.686Z,446
2023-06-16T11:58:46.695Z,424
2023-06-16T11:59:46.690Z,439
2023-06-16T12:00:46.705Z,450
2023-06-16T12:01:46.684Z,456
2023-06-16T12:02:46.840Z,458
2023-06-16T12:04:03.413Z,472
2023-06-16T12:04:46.723Z,530
2023-06-16T12:05:46.690Z,502
2023-06-16T12:06:46.694Z,562
2023-06-16T12:07:46.730Z,562
2023-06-16T12:08:46.704Z,562
2023-06-16T12:09:46.694Z,562
2023-06-16T12:10:46.691Z,562
2023-06-16T12:11:46.690Z,884
2023-06-16T12:12:46.695Z,884
2023-06-16T12:13:46.699Z,884
2023-06-16T12:14:46.695Z,884
2023-06-16T12:15:46.696Z,884
2023-06-16T12:16:46.696Z,1477
2023-06-16T12:17:46.711Z,1592
2023-06-16T12:18:46.699Z,1592
2023-06-16T12:19:46.702Z,1592
2023-06-16T12:20:46.699Z,1592
2023-06-16T12:21:46.702Z,1592
2023-06-16T12:22:46.701Z,3054
2023-06-16T12:23:46.766Z,3054
2023-06-16T12:24:46.700Z,3054
2023-06-16T12:25:46.700Z,3054
2023-06-16T12:26:46.700Z,3054
2023-06-16T12:27:46.702Z,5230
2023-06-16T12:28:46.700Z,4926
2023-06-16T12:29:46.716Z,5321
2023-06-16T12:30:46.703Z,5299
2023-06-16T12:31:46.701Z,5289
2023-06-16T12:32:46.843Z,5327
2023-06-16T12:33:46.699Z,5305
2023-06-16T12:34:46.701Z,5520
2023-06-16T12:35:46.701Z,5556
2023-06-16T12:36:46.701Z,5673
2023-06-16T12:37:46.699Z,5673
2023-06-16T12:38:48.158Z,3926
2023-06-16T12:39:46.728Z,3915
2023-06-16T12:40:46.711Z,3769
2023-06-16T12:41:46.703Z,3769
2023-06-16T12:42:46.703Z,3769
2023-06-16T12:43:46.707Z,3769
2023-06-16T12:44:46.711Z,3769
2023-06-16T12:45:46.705Z,3215
2023-06-16T12:46:46.781Z,3215
2023-06-16T12:47:46.731Z,3215
2023-06-16T12:48:46.705Z,3215
2023-06-16T12:49:46.705Z,2932
2023-06-16T12:50:46.706Z,2887
2023-06-16T12:51:46.708Z,2887
2023-06-16T12:52:46.718Z,2887
2023-06-16T12:53:46.717Z,2887
2023-06-16T12:54:46.710Z,2887
2023-06-16T12:55:46.737Z,2645
2023-06-16T12:56:46.709Z,2636
2023-06-16T12:57:46.711Z,2636
2023-06-16T12:58:46.712Z,2636
2023-06-16T12:59:46.708Z,2636
2023-06-16T13:00:46.712Z,1960
2023-06-16T13:01:46.731Z,1844
2023-06-16T13:02:46.750Z,1701
2023-06-16T13:03:46.712Z,1548
2023-06-16T13:04:46.921Z,1453
2023-06-16T13:05:46.712Z,1314
2023-06-16T13:06:46.713Z,1184
2023-06-16T13:07:46.717Z,1069
2023-06-16T13:08:46.713Z,996
2023-06-16T13:09:46.714Z,858
2023-06-16T13:10:46.714Z,766
2023-06-16T13:11:46.743Z,682
2023-06-16T13:12:46.714Z,627
2023-06-16T13:13:46.724Z,567
2023-06-16T13:14:46.720Z,536
2023-06-16T13:15:46.731Z,556
2023-06-16T13:16:46.715Z,527
2023-06-16T13:17:46.777Z,548
2023-06-16T13:18:46.716Z,548
2023-06-16T13:19:48.101Z,548
2023-06-16T13:20:46.719Z,548
2023-06-16T13:21:46.731Z,548
2023-06-16T13:22:46.716Z,625
2023-06-16T13:23:46.725Z,625
2023-06-16T13:24:46.725Z,625
2023-06-16T13:25:46.724Z,625
2023-06-16T13:26:46.715Z,625
2023-06-16T13:27:46.775Z,666
2023-06-16T13:28:46.720Z,666
2023-06-16T13:29:46.719Z,666
2023-06-16T13:30:46.722Z,666
2023-06-16T13:31:46.716Z,666
2023-06-16T13:32:46.768Z,793
2023-06-16T13:33:46.723Z,793
2023-06-16T13:34:46.721Z,793
2023-06-16T13:35:46.739Z,793
2023-06-16T13:36:46.723Z,793
2023-06-16T13:37:46.722Z,1008
2023-06-16T13:38:46.726Z,1008
2023-06-16T13:39:46.723Z,1008
2023-06-16T13:40:46.722Z,1008
2023-06-16T13:41:46.724Z,1008
2023-06-16T13:42:46.728Z,1328
2023-06-16T13:43:46.750Z,1328
2023-06-16T13:44:46.721Z,1328
2023-06-16T13:45:46.727Z,1328
2023-06-16T13:46:46.751Z,1328
2023-06-16T13:47:46.750Z,1679
2023-06-16T13:48:46.726Z,1679